createdAt,value
2018-08-13T04:44:58.547Z,11.97
2018-08-13T04:45:43.935Z,11.88
2018-08-13T04:46:43.771Z,11.95
2018-08-13T04:47:43.515Z,11.83
2018-08-13T05:47:15.012Z,13.83
2018-08-13T11:52:58.217Z,20.70
2018-08-13T11:54:01.461Z,20.72
2018-08-13T12:13:24.957Z,21.14
2018-08-13T12:15:23.140Z,21.25
2018-08-13T12:46:18.396Z,26.53
2018-08-13T12:47:18.841Z,27.10
2018-08-13T12:48:29.199Z,27.25
2018-08-13T12:49:17.324Z,27.11
2018-08-13T12:51:55.570Z,28.01
2018-08-13T12:53:26.071Z,28.32
2018-08-13T13:06:47.437Z,26.88
2018-08-13T13:07:43.619Z,26.56
2018-08-13T13:10:21.909Z,26.07
2018-08-13T13:11:23.245Z,25.87
2018-08-13T13:13:38.145Z,25.51
2018-08-13T13:14:17.215Z,25.11
2018-08-13T13:15:31.083Z,24.88
2018-08-13T13:25:12.256Z,23.83
2018-08-13T13:26:07.324Z,23.87
2018-08-13T13:26:49.341Z,23.87
2018-08-13T13:27:49.906Z,23.81
2018-08-13T13:30:54.571Z,24.13
2018-08-13T13:32:48.435Z,24.47
2018-08-13T13:33:47.741Z,24.58
2018-08-13T13:34:50.048Z,24.55
2018-08-13T13:36:45.521Z,25.01
2018-08-13T13:37:45.548Z,25.06
2018-08-13T13:38:45.784Z,24.89
2018-08-13T13:39:45.934Z,24.61
2018-08-13T13:40:46.275Z,24.38
2018-08-13T13:41:46.463Z,24.28
2018-08-13T13:42:47.100Z,24.11
2018-08-13T13:43:46.642Z,24.06
2018-08-13T13:44:47.059Z,23.87
2018-08-13T13:45:47.160Z,24.13
2018-08-13T13:46:47.610Z,24.32
2018-08-13T13:47:47.489Z,24.58
2018-08-13T13:48:47.572Z,24.69
2018-08-13T13:49:47.949Z,24.86
2018-08-13T13:50:51.417Z,24.93
2018-08-13T13:51:48.330Z,25.17
2018-08-13T13:52:51.410Z,25.11
2018-08-13T13:53:48.896Z,24.78
2018-08-13T14:06:50.256Z,23.32
2018-08-13T14:08:05.585Z,23.24
2018-08-13T14:30:03.052Z,23.08
2018-08-13T14:31:00.249Z,23.17
2018-08-13T14:31:58.976Z,23.44
2018-08-13T14:42:23.769Z,23.74
2018-08-13T14:43:25.812Z,23.66
2018-08-13T14:44:35.043Z,23.81
2018-08-13T14:45:33.344Z,23.83
2018-08-13T14:46:34.921Z,23.81
2018-08-13T14:47:23.816Z,23.80
2018-08-13T14:48:25.164Z,23.91
2018-08-13T14:49:24.579Z,24.13
2018-08-13T14:50:24.235Z,24.14
2018-08-13T14:51:22.271Z,23.96
2018-08-13T14:52:22.311Z,23.78
2018-08-13T14:53:22.658Z,23.83
2018-08-13T14:54:23.622Z,23.81
2018-08-13T14:55:22.775Z,23.71
2018-08-13T14:56:23.035Z,23.74
2018-08-13T14:57:23.151Z,23.66
2018-08-13T14:58:23.412Z,23.76
2018-08-13T14:59:23.536Z,23.83
2018-08-13T15:00:23.898Z,23.81
2018-08-13T15:01:23.894Z,23.81
2018-08-13T15:02:24.499Z,23.73
2018-08-13T15:03:24.192Z,23.61
2018-08-13T15:04:24.889Z,23.62
2018-08-13T15:05:24.709Z,23.48
2018-08-13T15:06:35.483Z,23.54
2018-08-13T15:07:27.616Z,23.58
2018-08-13T15:08:28.436Z,23.55
2018-08-13T15:09:36.201Z,23.40
2018-08-13T15:10:28.148Z,23.48
2018-08-13T15:11:30.521Z,23.63
2018-08-13T15:12:30.232Z,23.81
2018-08-13T15:13:30.477Z,23.80
2018-08-13T15:14:31.397Z,23.92
2018-08-13T15:15:27.348Z,24.33
2018-08-13T15:16:26.562Z,24.53
2018-08-13T15:17:26.866Z,24.57
2018-08-13T15:18:27.021Z,24.51
2018-08-13T15:19:27.139Z,24.61
2018-08-13T15:20:27.306Z,25.01
2018-08-13T15:21:27.489Z,25.43
2018-08-13T15:22:27.590Z,25.55
2018-08-13T15:23:27.819Z,25.70
2018-08-13T15:24:27.936Z,26.29
2018-08-13T15:25:28.123Z,26.05
2018-08-13T15:26:28.372Z,25.63
2018-08-13T15:27:28.705Z,25.55
2018-08-13T15:28:28.773Z,25.81
2018-08-13T15:29:28.746Z,26.41
2018-08-13T15:30:28.970Z,26.34
2018-08-13T15:31:29.266Z,26.18
2018-08-13T15:32:29.278Z,25.68
2018-08-13T15:33:29.492Z,25.03
2018-08-13T15:34:29.564Z,24.85
2018-08-13T15:35:29.856Z,24.70
2018-08-13T15:36:30.054Z,24.54
2018-08-13T15:37:30.143Z,24.24
2018-08-13T15:38:30.344Z,24.06
2018-08-13T15:39:30.537Z,24.14
2018-08-13T15:40:30.683Z,24.81
2018-08-13T15:41:30.882Z,24.91
2018-08-13T15:42:31.030Z,25.01
2018-08-13T15:43:31.265Z,25.63
2018-08-13T15:44:31.959Z,26.23
2018-08-13T15:45:31.658Z,26.34
2018-08-13T15:46:31.680Z,26.73
2018-08-13T15:47:31.964Z,26.48
2018-08-13T15:48:32.290Z,25.85
2018-08-13T15:49:32.369Z,25.91
2018-08-13T15:50:32.604Z,25.87
2018-08-13T15:51:32.849Z,25.66
2018-08-13T15:52:33.632Z,25.48
2018-08-13T15:53:33.171Z,25.43
2018-08-13T15:54:33.687Z,25.33
2018-08-13T15:55:33.532Z,25.83
2018-08-13T15:58:10.857Z,26.26
2018-08-13T15:59:11.518Z,26.02
2018-08-13T16:00:11.575Z,25.81
2018-08-13T16:02:23.388Z,25.21
2018-08-13T16:03:12.603Z,25.03
2018-08-13T16:04:11.503Z,24.69
2018-08-13T16:05:09.479Z,24.57
2018-08-13T16:06:09.483Z,24.43
2018-08-13T16:07:09.707Z,24.32
2018-08-13T16:08:09.821Z,24.36
2018-08-13T16:09:09.990Z,24.21
2018-08-13T16:10:10.193Z,23.99
2018-08-13T16:11:10.311Z,24.03
2018-08-13T16:12:10.493Z,23.93
2018-08-13T16:13:10.721Z,23.95
2018-08-13T16:14:11.374Z,23.81
2018-08-13T16:15:11.045Z,23.80
2018-08-13T16:16:11.139Z,23.81
2018-08-13T16:17:11.405Z,23.74
2018-08-13T16:18:11.596Z,23.62
2018-08-13T16:19:11.703Z,23.59
2018-08-13T16:20:11.878Z,23.61
2018-08-13T16:21:12.130Z,23.47
2018-08-13T16:22:12.202Z,23.46
2018-08-13T16:23:12.447Z,23.55
2018-08-13T16:25:17.139Z,23.61
2018-08-13T16:28:23.632Z,23.56
2018-08-13T16:29:16.338Z,23.61
2018-08-13T16:30:19.179Z,23.65
2018-08-13T16:35:49.320Z,23.43
2018-08-13T16:40:30.526Z,23.47
2018-08-13T16:41:34.670Z,23.47
2018-08-13T16:42:37.100Z,23.36
2018-08-13T16:44:38.157Z,23.39
2018-08-13T16:45:28.721Z,23.46
2018-08-13T16:46:30.272Z,23.41
2018-08-13T16:47:26.959Z,23.40
2018-08-13T16:48:26.754Z,23.36
2018-08-13T16:49:26.859Z,23.40
2018-08-13T16:50:27.189Z,23.37
2018-08-13T16:51:27.203Z,23.41
2018-08-13T16:52:27.458Z,23.47
2018-08-13T16:53:27.632Z,23.39
2018-08-13T16:54:27.847Z,23.39
2018-08-13T16:55:27.955Z,23.40
2018-08-13T16:56:28.152Z,23.32
2018-08-13T16:57:28.330Z,23.39
2018-08-13T16:58:28.530Z,23.44
2018-08-13T16:59:28.588Z,23.37
2018-08-13T17:00:28.852Z,23.37
2018-08-13T17:01:28.892Z,23.37
2018-08-13T17:02:29.260Z,23.40
2018-08-13T19:28:31.661Z,18.77
2018-08-13T19:29:39.534Z,18.80
2018-08-13T19:30:32.482Z,18.78
2018-08-13T19:32:32.731Z,18.83
2018-08-13T19:33:33.839Z,18.66
2018-08-13T19:34:29.706Z,18.68
2018-08-13T19:35:30.077Z,18.74
2018-08-13T19:36:30.376Z,18.71
2018-08-13T19:37:30.393Z,18.66
2018-08-13T19:38:30.849Z,18.75
2018-08-13T19:39:30.589Z,18.83
2018-08-13T19:40:31.003Z,18.86
2018-08-13T19:41:30.979Z,18.70
2018-08-13T19:42:31.714Z,18.77
2018-08-13T19:43:33.441Z,18.80
2018-08-13T19:44:31.498Z,18.90
2018-08-13T19:45:31.891Z,18.81
2018-08-13T19:46:32.021Z,18.89
2018-08-13T19:47:31.952Z,18.95
2018-08-13T19:48:32.198Z,18.95
2018-08-13T19:49:32.332Z,18.95
2018-08-13T19:50:32.431Z,19.00
2018-08-13T19:51:32.684Z,18.83
2018-08-13T19:52:32.889Z,18.78
2018-08-13T19:53:33.209Z,18.81
2018-08-13T19:54:33.343Z,18.84
2018-08-13T19:55:33.505Z,18.83
2018-08-13T19:56:33.658Z,18.80
2018-08-13T19:57:33.894Z,18.84
2018-08-13T19:58:33.973Z,18.63
2018-08-13T19:59:34.282Z,18.71
2018-08-13T20:00:34.473Z,18.65
2018-08-13T20:01:34.940Z,18.70
2018-08-13T20:02:34.825Z,18.75
2018-08-13T20:03:34.735Z,18.58
2018-08-13T20:04:35.112Z,18.53
2018-08-13T20:05:35.375Z,18.60
2018-08-13T20:06:35.304Z,18.47
2018-08-13T20:07:35.794Z,18.47
2018-08-13T20:08:35.677Z,18.56
2018-08-13T20:09:35.804Z,18.45
2018-08-13T20:10:36.494Z,18.40
2018-08-13T20:11:36.198Z,18.43
2018-08-13T20:12:36.631Z,18.38
2018-08-13T20:13:37.000Z,18.37
2018-08-13T20:14:36.929Z,18.44
2018-08-13T20:15:37.512Z,18.34
2018-08-13T20:16:37.723Z,18.44
2018-08-13T20:17:37.397Z,18.33
2018-08-13T20:18:37.716Z,18.37
2018-08-13T20:19:38.019Z,18.40
2018-08-13T20:20:38.214Z,18.43
2018-08-13T20:21:38.482Z,18.41
2018-08-13T20:22:38.440Z,18.43
2018-08-13T20:23:38.706Z,18.33
2018-08-13T20:24:38.486Z,18.28
2018-08-13T20:25:38.716Z,18.35
2018-08-13T20:26:39.291Z,18.35
2018-08-13T20:27:39.955Z,18.40
2018-08-13T20:28:39.887Z,18.52
2018-08-13T20:29:39.749Z,18.52
2018-08-13T20:30:40.711Z,18.37
2018-08-13T20:31:39.948Z,18.41
2018-08-13T20:32:40.249Z,18.44
2018-08-13T20:33:40.380Z,18.33
2018-08-13T20:34:40.599Z,18.28
2018-08-13T20:35:40.879Z,18.28
2018-08-13T20:36:40.960Z,18.25
2018-08-13T20:37:41.086Z,18.31
2018-08-13T20:38:41.085Z,18.20
2018-08-13T20:39:41.249Z,18.26
2018-08-13T20:40:42.142Z,18.22
2018-08-13T20:41:41.717Z,18.23
2018-08-13T20:42:43.015Z,18.23
2018-08-13T20:43:42.367Z,18.25
2018-08-13T20:44:42.632Z,18.23
2018-08-13T20:45:42.368Z,18.33
2018-08-13T20:46:42.608Z,18.26
2018-08-13T20:47:43.104Z,18.40
2018-08-13T20:48:43.389Z,18.34
2018-08-13T20:49:43.280Z,18.38
2018-08-13T20:50:43.338Z,18.28
2018-08-13T20:51:43.717Z,18.37
2018-08-13T20:52:44.637Z,18.37
2018-08-13T20:53:44.307Z,18.28
2018-08-13T20:54:44.466Z,18.26
2018-08-13T20:55:44.395Z,18.31
2018-08-13T20:56:44.499Z,18.28
2018-08-13T20:57:44.639Z,18.26
2018-08-13T20:58:44.983Z,18.15
2018-08-13T20:59:45.164Z,18.22
2018-08-13T21:00:45.024Z,18.28
2018-08-13T21:01:45.208Z,18.26
2018-08-13T21:02:45.421Z,18.25
2018-08-13T21:03:45.570Z,18.25
2018-08-13T21:04:45.798Z,18.16
2018-08-13T21:05:46.103Z,18.20
2018-08-13T21:06:46.157Z,18.11
2018-08-13T21:07:46.269Z,18.16
2018-08-13T21:08:46.731Z,18.16
2018-08-13T21:09:46.578Z,18.18
2018-08-13T21:10:46.778Z,18.10
2018-08-13T21:11:46.850Z,18.07
2018-08-13T21:12:50.309Z,18.03
2018-08-13T21:13:47.499Z,18.05
2018-08-13T21:14:47.550Z,18.15
2018-08-13T21:15:47.760Z,18.07
2018-08-13T21:16:47.992Z,18.07
2018-08-13T21:17:48.019Z,18.05
2018-08-13T21:18:48.183Z,18.10
2018-08-13T21:19:48.411Z,18.03
2018-08-13T21:20:48.853Z,18.04
2018-08-13T21:21:48.870Z,18.11
2018-08-13T21:22:48.840Z,18.01
2018-08-13T21:23:49.702Z,18.11
2018-08-13T21:24:50.132Z,18.10
2018-08-13T21:25:49.401Z,18.04
2018-08-13T21:26:49.963Z,18.05
2018-08-13T21:27:51.118Z,18.10
2018-08-13T21:28:49.909Z,18.04
2018-08-13T21:29:50.053Z,18.05
2018-08-13T21:30:50.139Z,18.03
2018-08-13T21:31:50.594Z,17.97
2018-08-13T21:32:50.897Z,17.92
2018-08-13T21:33:50.916Z,17.95
2018-08-13T21:34:51.140Z,17.92
2018-08-13T21:35:51.287Z,17.89
2018-08-13T21:36:51.506Z,17.87
2018-08-13T21:37:51.563Z,17.89
2018-08-13T21:38:51.777Z,17.92
2018-08-13T21:39:52.133Z,17.89
2018-08-13T21:40:52.491Z,17.86
2018-08-13T21:41:52.450Z,17.87
2018-08-13T21:42:52.999Z,17.80
2018-08-13T21:43:52.947Z,17.76
2018-08-13T21:44:53.164Z,17.83
2018-08-13T21:45:53.262Z,17.76
2018-08-13T21:46:53.171Z,17.70
2018-08-13T21:47:53.302Z,17.68
2018-08-13T21:48:54.473Z,17.67
2018-08-13T21:49:54.343Z,17.67
